Impacts METAR Board
IDs:

KMCO - Orlando Intl, FL, US

Updated at: 2200 UTC 02 Oct 2022
Potential Impact None Slight Moderate High
Time 02/10Z 02/11Z 02/12Z 02/13Z 02/14Z 02/15Z 02/16Z 02/17Z 02/18Z 02/19Z 02/20Z 02/21Z 02/22Z
Temp67 67 68 73 77 80 82 84 85 86 86 86 85
Dewpt64 64 65 66 65 64 61 57 58 59 54 51 54
Altim29.90 29.92 29.93 29.94 29.95 29.94 29.94 29.93 29.90 29.88 29.87 29.87 29.87
VIS10 10 10 10 10 10 10 10 10 10 10 10 10
CIG-- -- -- -- -- -- -- -- -- -- -- -- --
CoverFEWFEWCLRFEWFEWCLRCLRCLRFEWFEWCLRFEWFEW
FltCatVFRVFRVFRVFRVFRVFRVFRVFRVFRVFRVFRVFRVFR
WX--------------------------
WDir0280260300280320320310310290320280280
WSpd0 3 3 7 7 8 7 9 9 10 8 9 7
WGst-- -- -- -- -- -- -- -- 18 -- -- -- --
Raw hourly METARs
KMCO 020953Z 00000KT 10SM FEW055 19/18 A2990 RMK AO2 SLP122 T01940178
KMCO 021053Z 28003KT 10SM FEW055 19/18 A2992 RMK AO2 SLP128 T01940178
KMCO 021153Z 26003KT 10SM CLR 20/18 A2993 RMK AO2 SLP133 T02000183 10211 20183 53013
KMCO 021253Z 30007KT 10SM FEW055 23/19 A2994 RMK AO2 SLP136 T02280189
KMCO 021353Z 28007KT 10SM FEW060 25/18 A2995 RMK AO2 SLP139 T02500183
KMCO 021453Z 32008KT 10SM CLR 27/18 A2994 RMK AO2 SLP138 T02670178 50005
KMCO 021553Z 32007KT 290V350 10SM CLR 28/16 A2994 RMK AO2 SLP136 T02780161
KMCO 021653Z 31009KT 10SM CLR 29/14 A2993 RMK AO2 SLP132 T02890139
KMCO 021753Z 31009G18KT 10SM FEW060 29/14 A2990 RMK AO2 SLP125 T02940144 10294 20200 58013
KMCO 021853Z 29010KT 10SM FEW060 30/15 A2988 RMK AO2 SLP117 T03000150
KMCO 021953Z 32008KT 10SM CLR 30/12 A2987 RMK AO2 SLP113 T03000122
KMCO 022053Z 28009KT 10SM FEW060 30/11 A2987 RMK AO2 SLP112 T03000106 56013
KMCO 022153Z 28007KT 10SM FEW060 29/12 A2987 RMK AO2 SLP113 T02940122



Page loaded:  22:38 UTC  |   03:38 PM Pacific  |   04:38 PM Mountain  |   05:38 PM Central  |   06:38 PM Eastern

 

ADVISORIES

FORECASTS

FORECASTS

OBSERVATIONS

USER TOOLS

ABOUT US